createdAt,value
2022-12-11T00:02:02.788Z,51.61
2022-12-11T00:05:07.577Z,52.00
2022-12-11T00:08:13.927Z,51.10
2022-12-11T00:11:18.378Z,51.46
2022-12-11T00:14:21.647Z,51.81
2022-12-11T00:17:25.367Z,51.76
2022-12-11T00:20:28.716Z,51.49
2022-12-11T00:23:36.032Z,51.25
2022-12-11T00:26:40.329Z,51.17
2022-12-11T00:29:44.260Z,51.63
2022-12-11T00:32:47.643Z,51.31
2022-12-11T00:35:51.708Z,51.27
2022-12-11T00:38:56.809Z,51.49
2022-12-11T00:42:00.602Z,51.19
2022-12-11T00:45:05.288Z,50.87
2022-12-11T00:48:09.303Z,50.79
2022-12-11T00:51:12.686Z,51.05
2022-12-11T00:54:18.709Z,51.29
2022-12-11T00:57:22.045Z,50.60
2022-12-11T01:00:26.169Z,50.89
2022-12-11T01:03:29.607Z,50.84
2022-12-11T01:06:33.460Z,51.16
2022-12-11T01:09:55.578Z,50.73
2022-12-11T01:13:02.384Z,50.71
2022-12-11T01:16:11.807Z,50.74
2022-12-11T01:19:16.023Z,50.63
2022-12-11T01:22:19.390Z,50.68
2022-12-11T01:25:26.036Z,50.72
2022-12-11T01:28:29.191Z,50.65
2022-12-11T01:31:33.778Z,50.48
2022-12-11T01:34:37.273Z,50.53
2022-12-11T01:37:41.449Z,50.13
2022-12-11T01:40:49.404Z,50.09
2022-12-11T01:44:03.290Z,50.15
2022-12-11T01:47:07.216Z,50.35
2022-12-11T01:50:11.253Z,49.97
2022-12-11T01:53:22.434Z,50.23
2022-12-11T01:56:31.971Z,50.26
2022-12-11T01:59:40.040Z,49.97
2022-12-11T02:02:44.056Z,50.16
2022-12-11T02:05:47.362Z,49.84
2022-12-11T02:08:51.348Z,49.95
2022-12-11T02:12:05.539Z,50.42
2022-12-11T02:15:18.853Z,50.29
2022-12-11T02:18:35.894Z,50.34
2022-12-11T02:21:49.884Z,50.52
2022-12-11T02:25:12.115Z,50.43
2022-12-11T02:28:26.825Z,50.29
2022-12-11T02:31:39.892Z,50.62
2022-12-11T02:34:50.466Z,50.44
2022-12-11T02:38:02.926Z,50.36
2022-12-11T02:41:11.820Z,50.66
2022-12-11T02:44:22.137Z,50.63
2022-12-11T02:47:30.538Z,50.58
2022-12-11T02:50:38.971Z,50.58
2022-12-11T02:53:45.160Z,50.89
2022-12-11T02:56:58.974Z,50.50
2022-12-11T03:00:05.812Z,50.65
2022-12-11T03:03:09.444Z,50.54
2022-12-11T03:06:22.424Z,50.48
2022-12-11T03:09:25.802Z,51.04
2022-12-11T03:12:33.767Z,50.33
2022-12-11T03:15:58.486Z,50.79
2022-12-11T03:19:16.920Z,50.55
2022-12-11T03:22:30.358Z,50.75
2022-12-11T03:25:45.529Z,50.52
2022-12-11T03:28:56.967Z,50.64
2022-12-11T03:32:10.485Z,50.90
2022-12-11T03:35:22.261Z,51.23
2022-12-11T03:38:38.414Z,50.92
2022-12-11T03:41:45.705Z,50.80
2022-12-11T03:44:54.348Z,50.87
2022-12-11T03:48:03.627Z,50.84
2022-12-11T03:51:09.596Z,50.57
2022-12-11T03:54:13.473Z,51.15
2022-12-11T03:57:27.142Z,50.26
2022-12-11T04:00:31.276Z,50.41
2022-12-11T04:03:36.599Z,50.66
2022-12-11T04:06:39.956Z,50.80
2022-12-11T04:09:43.780Z,50.70
2022-12-11T04:12:47.187Z,50.61
2022-12-11T04:15:50.047Z,50.58
2022-12-11T04:19:12.038Z,50.28
2022-12-11T04:22:35.619Z,50.59
2022-12-11T04:25:39.102Z,50.58
2022-12-11T04:28:46.484Z,50.45
2022-12-11T04:31:50.647Z,50.59
2022-12-11T04:34:56.009Z,50.33
2022-12-11T04:37:59.636Z,50.34
2022-12-11T04:41:06.967Z,50.34
2022-12-11T04:44:10.327Z,50.59
2022-12-11T04:47:14.208Z,50.89
2022-12-11T04:50:19.922Z,50.74
2022-12-11T04:53:23.730Z,50.35
2022-12-11T04:56:27.127Z,50.44
2022-12-11T04:59:32.491Z,50.44
2022-12-11T05:02:37.139Z,50.43
2022-12-11T05:05:42.411Z,50.38
2022-12-11T05:08:47.543Z,50.27
2022-12-11T05:11:51.875Z,50.03
2022-12-11T05:14:56.047Z,50.19
2022-12-11T05:17:59.717Z,50.08
2022-12-11T05:21:08.540Z,50.01
2022-12-11T05:24:12.286Z,50.40
2022-12-11T05:27:15.760Z,50.21
2022-12-11T05:30:19.606Z,50.17
2022-12-11T05:33:23.247Z,50.61
2022-12-11T05:36:31.522Z,49.93
2022-12-11T05:39:35.174Z,49.82
2022-12-11T05:42:38.975Z,50.11
2022-12-11T05:45:42.458Z,50.04
2022-12-11T05:48:49.241Z,49.86
2022-12-11T05:51:54.007Z,50.02
2022-12-11T05:54:57.745Z,49.68
2022-12-11T05:58:01.185Z,49.94
2022-12-11T06:01:10.353Z,50.31
2022-12-11T06:04:14.361Z,50.62
2022-12-11T06:07:19.603Z,50.29
2022-12-11T06:10:22.823Z,50.43
2022-12-11T06:13:27.130Z,50.45
2022-12-11T06:16:30.469Z,50.47
2022-12-11T06:19:37.017Z,50.45
2022-12-11T06:22:42.009Z,50.84
2022-12-11T06:25:45.849Z,49.96
2022-12-11T06:28:50.308Z,50.40
2022-12-11T06:31:53.994Z,50.40
2022-12-11T06:34:57.370Z,50.33
2022-12-11T06:38:02.382Z,50.08
2022-12-11T06:41:07.950Z,49.81
2022-12-11T06:44:11.553Z,49.68
2022-12-11T06:47:14.831Z,49.31
2022-12-11T06:50:18.484Z,49.41
2022-12-11T06:53:23.240Z,49.09
2022-12-11T06:56:27.102Z,48.88
2022-12-11T06:59:30.328Z,48.77
2022-12-11T07:02:34.346Z,48.58
2022-12-11T07:05:37.624Z,48.65
2022-12-11T07:08:43.621Z,48.53
2022-12-11T07:11:46.928Z,48.73
2022-12-11T07:14:50.367Z,48.22
2022-12-11T07:17:53.746Z,47.84
2022-12-11T07:21:00.485Z,47.92
2022-12-11T07:24:05.936Z,47.85
2022-12-11T07:27:09.764Z,48.85
2022-12-11T07:30:15.495Z,48.85
2022-12-11T07:33:19.328Z,49.00
2022-12-11T07:36:24.348Z,48.91
2022-12-11T07:39:29.558Z,49.17
2022-12-11T07:42:33.113Z,49.22
2022-12-11T07:45:36.731Z,49.48
2022-12-11T07:48:42.682Z,50.08
2022-12-11T07:51:46.357Z,49.26
2022-12-11T07:54:51.477Z,49.39
2022-12-11T07:57:54.957Z,49.17
2022-12-11T08:00:59.203Z,49.32
2022-12-11T08:04:03.434Z,49.71
2022-12-11T08:07:06.815Z,49.52
2022-12-11T08:10:12.065Z,50.45
2022-12-11T08:13:15.606Z,51.06
2022-12-11T08:16:20.347Z,51.55
2022-12-11T08:19:23.613Z,51.61
2022-12-11T08:22:27.136Z,51.27
2022-12-11T08:25:31.823Z,51.40
2022-12-11T08:28:35.711Z,51.07
2022-12-11T08:31:40.870Z,51.31
2022-12-11T08:34:44.709Z,50.65
2022-12-11T08:37:48.429Z,50.25
2022-12-11T08:40:53.416Z,50.26
2022-12-11T08:43:58.505Z,50.09
2022-12-11T08:47:02.203Z,50.69
2022-12-11T08:50:06.888Z,50.41
2022-12-11T08:53:10.751Z,49.79
2022-12-11T08:56:18.735Z,49.77
2022-12-11T08:59:22.761Z,49.76
2022-12-11T09:02:26.391Z,49.90
2022-12-11T09:05:30.663Z,50.13
2022-12-11T09:08:34.778Z,50.50
2022-12-11T09:11:40.019Z,50.88
2022-12-11T09:14:43.287Z,51.82
2022-12-11T09:17:46.918Z,52.31
2022-12-11T09:20:50.595Z,52.62
2022-12-11T09:23:56.298Z,52.77
2022-12-11T09:27:01.385Z,52.67
2022-12-11T09:30:06.296Z,52.25
2022-12-11T09:33:09.841Z,52.53
2022-12-11T09:36:14.448Z,51.71
2022-12-11T09:39:20.029Z,51.97
2022-12-11T09:42:44.911Z,52.24
2022-12-11T09:45:51.682Z,52.55
2022-12-11T09:48:56.181Z,52.64
2022-12-11T09:52:15.035Z,53.24
2022-12-11T09:55:24.166Z,53.44
2022-12-11T09:58:42.323Z,53.46
2022-12-11T10:01:54.827Z,53.75
2022-12-11T10:05:18.189Z,53.49
2022-12-11T10:08:36.554Z,53.78
2022-12-11T10:12:01.091Z,53.66
2022-12-11T10:15:25.391Z,53.56
2022-12-11T10:18:32.294Z,53.41
2022-12-11T10:21:42.645Z,53.12
2022-12-11T10:25:13.029Z,53.31
2022-12-11T10:28:19.581Z,53.72
2022-12-11T10:31:39.437Z,53.90
2022-12-11T10:34:49.034Z,54.11
2022-12-11T10:37:53.436Z,54.55
2022-12-11T10:41:04.721Z,54.35
2022-12-11T10:44:18.502Z,53.81
2022-12-11T10:47:24.144Z,54.08
2022-12-11T10:50:28.085Z,53.86
2022-12-11T10:53:34.785Z,54.16
2022-12-11T10:56:39.510Z,54.05
2022-12-11T10:59:49.244Z,53.70
2022-12-11T11:02:53.955Z,53.46
2022-12-11T11:06:07.969Z,53.57
2022-12-11T11:09:32.006Z,53.10
2022-12-11T11:12:42.121Z,53.22
2022-12-11T11:15:46.560Z,52.96
2022-12-11T11:18:58.644Z,52.65
2022-12-11T11:22:08.403Z,52.71
2022-12-11T11:25:20.931Z,52.55
2022-12-11T11:28:30.486Z,52.56
2022-12-11T11:31:36.732Z,52.31
2022-12-11T11:34:41.723Z,52.21
2022-12-11T11:37:55.786Z,52.29
2022-12-11T11:41:15.230Z,51.77
2022-12-11T11:44:29.966Z,52.46
2022-12-11T11:47:44.275Z,52.38
2022-12-11T11:50:52.063Z,52.35
2022-12-11T11:54:01.546Z,52.75
2022-12-11T11:57:19.232Z,52.14
2022-12-11T12:00:28.829Z,52.08
2022-12-11T12:03:35.545Z,52.47
2022-12-11T12:07:06.805Z,53.36
2022-12-11T12:10:20.459Z,54.18
2022-12-11T12:13:49.609Z,54.27
2022-12-11T12:17:15.261Z,54.09
2022-12-11T12:20:30.632Z,54.52
2022-12-11T12:23:56.057Z,54.02
2022-12-11T12:27:29.442Z,53.53
2022-12-11T12:30:51.008Z,53.95
2022-12-11T12:34:06.538Z,54.05
2022-12-11T12:37:28.455Z,53.92
2022-12-11T12:40:46.466Z,54.03
2022-12-11T12:44:12.901Z,54.32
2022-12-11T12:47:21.557Z,54.02
2022-12-11T12:50:33.043Z,53.91
2022-12-11T12:53:39.490Z,53.94
2022-12-11T12:56:47.095Z,54.39
2022-12-11T12:59:56.431Z,54.44
2022-12-11T13:03:03.921Z,54.87
2022-12-11T13:06:11.157Z,54.62
2022-12-11T13:09:19.535Z,54.87
2022-12-11T13:12:40.772Z,54.97
2022-12-11T13:15:44.624Z,54.95
2022-12-11T13:18:49.659Z,54.64
2022-12-11T13:21:59.805Z,54.01
2022-12-11T13:25:22.072Z,54.28
2022-12-11T13:28:51.672Z,53.80
2022-12-11T13:32:00.933Z,54.46
2022-12-11T13:35:08.643Z,54.17
2022-12-11T13:38:20.554Z,53.80
2022-12-11T13:41:25.863Z,53.79
2022-12-11T13:44:34.981Z,53.47
2022-12-11T13:47:39.370Z,53.76
2022-12-11T13:50:46.153Z,53.22
2022-12-11T13:53:50.602Z,53.20
2022-12-11T13:57:17.929Z,52.46
2022-12-11T14:00:27.843Z,52.65
2022-12-11T14:03:33.606Z,52.10
2022-12-11T14:06:40.049Z,52.45
2022-12-11T14:09:47.199Z,52.83
2022-12-11T14:12:57.971Z,52.62
2022-12-11T14:16:04.271Z,52.43
2022-12-11T14:19:10.987Z,52.62
2022-12-11T14:22:21.860Z,52.50
2022-12-11T14:25:28.133Z,52.79
2022-12-11T14:28:39.959Z,52.48
2022-12-11T14:31:45.783Z,52.78
2022-12-11T14:34:52.652Z,53.21
2022-12-11T14:38:01.418Z,53.08
2022-12-11T14:41:17.657Z,53.27
2022-12-11T14:44:26.790Z,53.38
2022-12-11T14:47:39.359Z,53.35
2022-12-11T14:50:50.086Z,53.32
2022-12-11T14:53:56.278Z,52.99
2022-12-11T14:57:06.157Z,53.18
2022-12-11T15:00:21.849Z,53.14
2022-12-11T15:03:34.341Z,53.33
2022-12-11T15:06:47.322Z,53.55
2022-12-11T15:09:52.918Z,53.38
2022-12-11T15:12:56.346Z,53.46
2022-12-11T15:16:01.454Z,53.43
2022-12-11T15:19:07.231Z,53.88
2022-12-11T15:22:17.267Z,53.92
2022-12-11T15:25:24.870Z,53.96
2022-12-11T15:28:34.243Z,54.63
2022-12-11T15:31:37.608Z,54.17
2022-12-11T15:34:48.725Z,54.62
2022-12-11T15:37:55.135Z,54.80
2022-12-11T15:40:59.573Z,55.37
2022-12-11T15:44:05.727Z,55.07
2022-12-11T15:47:17.026Z,54.92
2022-12-11T15:50:24.566Z,54.49
2022-12-11T15:53:28.216Z,52.76
2022-12-11T15:56:32.294Z,50.95
2022-12-11T15:59:36.215Z,49.09
2022-12-11T16:02:39.624Z,47.62
2022-12-11T16:05:45.282Z,46.35
2022-12-11T16:08:48.738Z,45.91
2022-12-11T16:11:52.538Z,44.51
2022-12-11T16:14:55.872Z,43.67
2022-12-11T16:18:04.785Z,43.70
2022-12-11T16:21:09.717Z,42.38
2022-12-11T16:24:13.400Z,42.24
2022-12-11T16:27:22.827Z,42.47
2022-12-11T16:30:28.042Z,42.24
2022-12-11T16:33:31.370Z,42.77
2022-12-11T16:36:36.466Z,42.63
2022-12-11T16:39:42.720Z,42.85
2022-12-11T16:42:46.824Z,43.43
2022-12-11T16:45:56.769Z,44.05
2022-12-11T16:49:00.477Z,44.43
2022-12-11T16:52:05.814Z,44.83
2022-12-11T16:55:11.884Z,45.12
2022-12-11T16:58:20.264Z,45.48
2022-12-11T17:01:24.374Z,45.69
2022-12-11T17:04:28.758Z,46.15
2022-12-11T17:07:34.566Z,45.82
2022-12-11T17:10:42.110Z,47.04
2022-12-11T17:13:46.209Z,47.39
2022-12-11T17:16:51.374Z,47.82
2022-12-11T17:19:56.007Z,47.00
2022-12-11T17:23:02.134Z,47.10
2022-12-11T17:26:10.623Z,47.08
2022-12-11T17:29:15.106Z,46.53
2022-12-11T17:32:19.970Z,46.60
2022-12-11T17:35:23.303Z,45.98
2022-12-11T17:38:28.652Z,45.58
2022-12-11T17:41:32.045Z,44.95
2022-12-11T17:44:35.914Z,45.32
2022-12-11T17:47:39.096Z,45.41
2022-12-11T17:50:43.947Z,45.45
2022-12-11T17:53:49.299Z,45.45
2022-12-11T17:56:53.341Z,45.46
2022-12-11T17:59:57.178Z,45.70
2022-12-11T18:03:00.798Z,45.43
2022-12-11T18:06:10.165Z,45.72
2022-12-11T18:09:15.428Z,45.80
2022-12-11T18:12:18.805Z,45.76
2022-12-11T18:15:22.489Z,45.79
2022-12-11T18:18:25.988Z,45.83
2022-12-11T18:21:33.949Z,45.69
2022-12-11T18:24:39.210Z,45.82
2022-12-11T18:27:42.750Z,45.75
2022-12-11T18:30:46.695Z,45.48
2022-12-11T18:33:51.185Z,45.30
2022-12-11T18:36:54.840Z,45.51
2022-12-11T18:40:00.288Z,45.45
2022-12-11T18:43:04.017Z,45.52
2022-12-11T18:46:10.412Z,45.73
2022-12-11T18:49:15.335Z,46.13
2022-12-11T18:52:19.224Z,46.25
2022-12-11T18:55:24.293Z,46.79
2022-12-11T18:58:28.007Z,46.99
2022-12-11T19:01:33.209Z,47.04
2022-12-11T19:04:37.625Z,47.20
2022-12-11T19:07:40.972Z,47.20
2022-12-11T19:10:48.137Z,47.28
2022-12-11T19:13:53.318Z,47.46
2022-12-11T19:16:57.084Z,47.57
2022-12-11T19:20:18.812Z,47.79
2022-12-11T19:23:24.529Z,47.63
2022-12-11T19:26:29.325Z,47.86
2022-12-11T19:29:33.675Z,48.13
2022-12-11T19:32:37.070Z,48.11
2022-12-11T19:35:41.452Z,47.92
2022-12-11T19:38:46.973Z,48.33
2022-12-11T19:41:52.076Z,48.34
2022-12-11T19:44:55.512Z,48.23
2022-12-11T19:47:59.353Z,48.06
2022-12-11T19:51:06.241Z,48.11
2022-12-11T19:54:14.999Z,48.58
2022-12-11T19:57:19.867Z,48.54
2022-12-11T20:00:24.576Z,48.83
2022-12-11T20:03:28.562Z,49.08
2022-12-11T20:06:35.329Z,49.04
2022-12-11T20:09:38.729Z,49.03
2022-12-11T20:12:43.668Z,48.88
2022-12-11T20:15:46.974Z,48.81
2022-12-11T20:18:50.830Z,48.70
2022-12-11T20:21:55.657Z,49.11
2022-12-11T20:24:59.349Z,49.49
2022-12-11T20:28:04.161Z,49.11
2022-12-11T20:31:14.877Z,49.79
2022-12-11T20:34:21.579Z,49.86
2022-12-11T20:37:26.848Z,49.76
2022-12-11T20:40:30.353Z,49.53
2022-12-11T20:43:35.534Z,49.75
2022-12-11T20:46:38.941Z,49.71
2022-12-11T20:49:42.733Z,49.59
2022-12-11T20:52:45.957Z,49.05
2022-12-11T20:55:49.502Z,49.37
2022-12-11T20:58:54.256Z,49.86
2022-12-11T21:01:58.355Z,49.88
2022-12-11T21:05:02.141Z,50.69
2022-12-11T21:08:06.114Z,50.32
2022-12-11T21:11:09.320Z,50.14
2022-12-11T21:14:14.771Z,49.97
2022-12-11T21:17:18.248Z,49.99
2022-12-11T21:20:22.249Z,49.58
2022-12-11T21:23:29.129Z,49.49
2022-12-11T21:26:32.752Z,49.37
2022-12-11T21:29:37.681Z,49.01
2022-12-11T21:32:41.359Z,48.89
2022-12-11T21:35:44.800Z,49.18
2022-12-11T21:38:49.266Z,48.88
2022-12-11T21:41:52.967Z,49.32
2022-12-11T21:48:21.715Z,49.40
2022-12-11T21:51:32.592Z,49.45
2022-12-11T21:54:37.552Z,49.64
2022-12-11T21:57:41.132Z,48.77
2022-12-11T22:00:47.197Z,49.01
2022-12-11T22:03:54.383Z,48.74
2022-12-11T22:06:59.173Z,48.88
2022-12-11T22:10:02.796Z,48.63
2022-12-11T22:13:06.811Z,48.35
2022-12-11T22:16:11.995Z,49.24
2022-12-11T22:19:15.844Z,49.14
2022-12-11T22:22:20.465Z,48.78
2022-12-11T22:25:23.798Z,48.87
2022-12-11T22:28:29.210Z,48.98
2022-12-11T22:31:33.940Z,49.57
2022-12-11T22:34:37.590Z,49.39
2022-12-11T22:37:41.002Z,49.66
2022-12-11T22:40:44.468Z,49.61
2022-12-11T22:43:47.716Z,49.79
2022-12-11T22:46:52.596Z,49.63
2022-12-11T22:49:55.988Z,49.45
2022-12-11T22:52:59.452Z,49.70
2022-12-11T22:56:06.085Z,49.62
2022-12-11T22:59:09.741Z,49.46
2022-12-11T23:02:14.430Z,49.59
2022-12-11T23:05:18.298Z,49.73
2022-12-11T23:08:21.939Z,49.34
2022-12-11T23:11:28.798Z,49.31
2022-12-11T23:14:32.287Z,49.50
2022-12-11T23:17:37.302Z,49.15
2022-12-11T23:20:40.609Z,49.42
2022-12-11T23:23:44.429Z,49.09
2022-12-11T23:26:48.182Z,49.06
2022-12-11T23:29:52.258Z,49.24
2022-12-11T23:32:57.221Z,49.19
2022-12-11T23:36:01.035Z,48.44
2022-12-11T23:39:05.599Z,49.20
2022-12-11T23:42:09.530Z,48.58
2022-12-11T23:45:13.245Z,48.50
2022-12-11T23:48:19.083Z,48.60
2022-12-11T23:51:25.672Z,48.79
2022-12-11T23:54:29.460Z,48.41
2022-12-11T23:57:32.800Z,48.55
